Kremlin, MT (59532)

7:07 PM MDT on October 31, 2014 (GMT -0600)
Havre City-County | Change Station
CLOSE
Current Station
Airport
Location: Havre,
Elevation: 2598 ft
Nearby Weather Stations
Active Advisory: Winter Storm Watch Active Notice: Record Report

Elev 2598 ft 48.54 °N, 109.76 °W | Updated 14 minutes ago

Partly Cloudy
Partly Cloudy
47 °F
Feels Like 47 °F
N
5
Wind Variable Wind from East

Today
High -- | Low -- °F
--% Chance of Precip.
Yesterday
High -- | Low -- °F
Precip. -- in
8:04 AM 6:01 PM
First Quarter, 61% visible
Pressure 29.76 in
Visibility 10.0 miles
Clouds Clear
Dew Point 36 °F
Humidity 66%
Rainfall 0.00 in
Snow Depth Not available.
UV 0 out of 12
Pollen 3.20 out of 12
Air Quality Not available.
Flu Activity Not available.
METAR KHVR 010053Z AUTO 08004KT 10SM CLR 08/02 A2971 RMK AO2 SLP077 T00830022

More Conditions Fewer Conditions

Pressure 29.76 in
Visibility 10.0 miles
Clouds Clear
Dew Point 36 °F
Humidity 66%
Rainfall 0.00 in
Snow Depth Not available.
UV 0 out of 12
Pollen 3.20 out of 12
Air Quality Not available.
Flu Activity Not available.
METAR KHVR 010053Z AUTO 08004KT 10SM CLR 08/02 A2971 RMK AO2 SLP077 T00830022

More Conditions Fewer Conditions

10-Day Weather Forecast

Almanac

Astronomy

Oct. 31, 2014 Rise Set
Actual Time
Civil Twilight
Nautical Twilight
Astronomical Twilight
Moon
Length of Visible Light
Length of Day
Tomorrow will be .
, % of the Moon is Illuminated

Today's Extremes

State Highs State Lows

Community

WunderPhotos

Upload Photos

1,766,798 photos uploaded!

WunderBlogs® & News

Nearby

Air Quality

  Air Quality AQ Index Pollutant
Not available.

Snow Depth

Station Depth Elevation

Earthquake Activity

City Distance Mag. Time & Date
Minimum magnitude displayed is 2.5.

Coastal Water Temperatures

Place Temperature

Nearby Weather Stations